Terminal Aerodrome Forecast
Issued by NWS

Home | Current Version | Previous Version | Text Only | Print | Product List | Glossary On
Versions: 1 2 3 4 5 6 7 8 9 10 11 12 13 14 15 16 17 18 19 20 21
000
FTUS42 KTBW 190500
TAFPIE
TAF
KPIE 190538Z 1906/2006 05006KT P6SM FEW025 SCT040 BKN250
     FM190900 VRB04KT P6SM SCT030 BKN200
     FM191200 07005KT P6SM VCSH SCT030 BKN100 OVC200
     FM191500 05007KT 6SM SHRA VCTS BKN035CB BKN100 OVC150
     FM200000 06005KT 6SM BR VCSH SCT020 BKN035 OVC100=

USA.gov is the U.S. government's official web portal to all federal, state and local government web resources and services.